createdAt,value
2023-08-02T00:00:36.214Z,99399.41
2023-08-02T00:01:38.465Z,99399.66
2023-08-02T00:02:41.061Z,99404.28
2023-08-02T00:03:51.373Z,99409.47
2023-08-02T00:05:00.247Z,99410.84
2023-08-02T00:06:02.985Z,99404.25
2023-08-02T00:07:06.140Z,99404.72
2023-08-02T00:08:08.368Z,99412.78
2023-08-02T00:09:10.868Z,99403.94
2023-08-02T00:10:14.242Z,99410.97
2023-08-02T00:11:19.707Z,99412.69
2023-08-02T00:12:22.041Z,99404.84
2023-08-02T00:13:24.436Z,99409.34
2023-08-02T00:14:26.936Z,99408.75
2023-08-02T00:15:29.153Z,99405.06
2023-08-02T00:16:31.905Z,99400.03
2023-08-02T00:17:34.474Z,99404.72
2023-08-02T00:18:37.409Z,99401.41
2023-08-02T00:19:39.819Z,99401.56
2023-08-02T00:20:42.240Z,99405.56
2023-08-02T00:21:45.203Z,99401.88
2023-08-02T00:22:47.421Z,99402.28
2023-08-02T00:23:49.664Z,99399.59
2023-08-02T00:24:52.075Z,99407.69
2023-08-02T00:25:54.640Z,99411.88
2023-08-02T00:26:57.091Z,99414.13
2023-08-02T00:27:59.657Z,99413.53
2023-08-02T00:29:03.880Z,99410.69
2023-08-02T00:30:06.730Z,99408.56
2023-08-02T00:31:09.471Z,99411.03
2023-08-02T00:32:11.949Z,99408.53
2023-08-02T00:33:14.413Z,99406.22
2023-08-02T00:34:17.919Z,99408.78
2023-08-02T00:35:20.350Z,99408.78
2023-08-02T00:36:22.727Z,99410.41
2023-08-02T00:37:25.269Z,99414.44
2023-08-02T00:38:27.634Z,99412.63
2023-08-02T00:39:30.041Z,99416.81
2023-08-02T00:40:32.445Z,99418.28
2023-08-02T00:41:34.683Z,99423.41
2023-08-02T00:42:37.155Z,99417.03
2023-08-02T00:43:43.240Z,99417.41
2023-08-02T00:44:46.154Z,99414.19
2023-08-02T00:45:48.701Z,99410.03
2023-08-02T00:46:51.318Z,99409.06
2023-08-02T00:47:53.777Z,99414.91
2023-08-02T00:48:56.214Z,99414.06
2023-08-02T00:49:58.945Z,99413.34
2023-08-02T00:51:02.888Z,99416.56
2023-08-02T00:52:06.260Z,99416.69
2023-08-02T00:53:08.590Z,99408.13
2023-08-02T00:54:11.099Z,99411.91
2023-08-02T00:55:13.368Z,99412.50
2023-08-02T00:56:16.411Z,99410.41
2023-08-02T00:57:18.848Z,99413.25
2023-08-02T00:58:21.093Z,99410.69
2023-08-02T00:59:23.284Z,99420.91
2023-08-02T01:00:25.866Z,99419.03
2023-08-02T01:01:28.179Z,99418.31
2023-08-02T01:02:30.878Z,99412.69
2023-08-02T01:03:33.467Z,99421.91
2023-08-02T01:04:37.503Z,99421.75
2023-08-02T01:05:44.977Z,99421.75
2023-08-02T01:07:08.679Z,99428.78
2023-08-02T01:08:20.717Z,99430.25
2023-08-02T01:09:27.683Z,99424.97
2023-08-02T01:10:53.467Z,99423.94
2023-08-02T01:12:01.573Z,99424.84
2023-08-02T01:13:05.441Z,99418.00
2023-08-02T01:14:10.758Z,99429.28
2023-08-02T01:15:15.692Z,99435.03
2023-08-02T01:16:20.300Z,99432.34
2023-08-02T01:17:26.678Z,99436.00
2023-08-02T01:18:31.328Z,99431.72
2023-08-02T01:19:34.340Z,99429.00
2023-08-02T01:20:36.692Z,99419.84
2023-08-02T01:21:40.148Z,99428.06
2023-08-02T01:22:42.367Z,99423.88
2023-08-02T01:23:45.371Z,99424.59
2023-08-02T01:24:47.766Z,99426.94
2023-08-02T01:25:52.405Z,99431.63
2023-08-02T01:26:55.797Z,99432.63
2023-08-02T01:28:06.037Z,99432.97
2023-08-02T01:29:11.189Z,99433.94
2023-08-02T01:30:17.646Z,99429.53
2023-08-02T01:31:22.548Z,99423.63
2023-08-02T01:32:25.157Z,99429.63
2023-08-02T01:33:28.648Z,99429.75
2023-08-02T01:34:31.795Z,99432.34
2023-08-02T01:35:35.525Z,99428.06
2023-08-02T01:36:39.110Z,99432.44
2023-08-02T01:37:43.551Z,99429.63
2023-08-02T01:38:46.168Z,99434.41
2023-08-02T01:39:48.377Z,99430.97
2023-08-02T01:40:51.134Z,99429.25
2023-08-02T01:41:53.576Z,99432.78
2023-08-02T01:42:55.818Z,99421.00
2023-08-02T01:43:58.391Z,99424.84
2023-08-02T01:45:00.649Z,99427.28
2023-08-02T01:46:03.157Z,99424.78
2023-08-02T01:47:05.440Z,99425.78
2023-08-02T01:48:07.914Z,99426.53
2023-08-02T01:49:10.337Z,99422.56
2023-08-02T01:50:12.543Z,99420.72
2023-08-02T01:51:15.233Z,99424.31
2023-08-02T01:52:17.441Z,99431.94
2023-08-02T01:53:19.863Z,99435.50
2023-08-02T01:54:22.290Z,99424.69
2023-08-02T01:55:24.505Z,99426.16
2023-08-02T01:56:26.998Z,99420.63
2023-08-02T01:57:29.205Z,99421.25
2023-08-02T01:58:31.992Z,99423.72
2023-08-02T01:59:34.236Z,99423.09
2023-08-02T02:00:36.889Z,99423.09
2023-08-02T02:01:39.963Z,99415.72
2023-08-02T02:02:42.567Z,99422.69
2023-08-02T02:03:45.143Z,99415.91
2023-08-02T02:04:47.452Z,99421.22
2023-08-02T02:05:56.012Z,99421.97
2023-08-02T02:06:58.275Z,99420.72
2023-08-02T02:08:00.696Z,99420.31
2023-08-02T02:09:03.162Z,99423.91
2023-08-02T02:10:05.786Z,99415.53
2023-08-02T02:11:08.909Z,99422.47
2023-08-02T02:12:11.190Z,99427.94
2023-08-02T02:13:13.768Z,99420.69
2023-08-02T02:14:16.267Z,99427.34
2023-08-02T02:15:18.627Z,99434.22
2023-08-02T02:16:20.887Z,99424.38
2023-08-02T02:17:23.440Z,99429.66
2023-08-02T02:18:25.890Z,99423.47
2023-08-02T02:19:28.326Z,99428.50
2023-08-02T02:20:30.601Z,99426.94
2023-08-02T02:21:37.047Z,99418.22
2023-08-02T02:22:39.755Z,99416.53
2023-08-02T02:23:45.516Z,99423.00
2023-08-02T02:24:47.807Z,99419.69
2023-08-02T02:25:50.424Z,99418.22
2023-08-02T02:26:55.899Z,99418.22
2023-08-02T02:27:58.329Z,99423.63
2023-08-02T02:29:02.771Z,99425.97
2023-08-02T02:30:05.879Z,99421.53
2023-08-02T02:31:08.404Z,99420.81
2023-08-02T02:32:10.753Z,99426.47
2023-08-02T02:33:13.223Z,99422.78
2023-08-02T02:34:15.746Z,99422.38
2023-08-02T02:35:17.975Z,99422.75
2023-08-02T02:36:20.371Z,99416.63
2023-08-02T02:37:22.706Z,99420.56
2023-08-02T02:38:26.705Z,99419.47
2023-08-02T02:39:29.141Z,99419.69
2023-08-02T02:40:31.416Z,99416.25
2023-08-02T02:41:33.652Z,99414.16
2023-08-02T02:42:39.401Z,99418.72
2023-08-02T02:43:42.024Z,99411.84
2023-08-02T02:44:45.508Z,99416.88
2023-08-02T02:45:47.786Z,99420.81
2023-08-02T02:46:51.199Z,99419.97
2023-08-02T02:47:53.854Z,99410.97
2023-08-02T02:48:56.438Z,99416.25
2023-08-02T02:49:58.639Z,99410.50
2023-08-02T02:51:01.669Z,99411.25
2023-08-02T02:52:04.458Z,99417.03
2023-08-02T02:53:06.669Z,99417.50
2023-08-02T02:54:09.263Z,99407.69
2023-08-02T02:55:11.592Z,99415.53
2023-08-02T02:56:14.156Z,99411.97
2023-08-02T02:57:17.698Z,99409.78
2023-08-02T02:58:19.937Z,99408.56
2023-08-02T02:59:22.572Z,99411.63
2023-08-02T03:00:24.787Z,99407.69
2023-08-02T03:01:27.187Z,99411.38
2023-08-02T03:02:30.108Z,99410.84
2023-08-02T03:03:32.637Z,99404.34
2023-08-02T03:04:36.422Z,99412.50
2023-08-02T03:05:40.068Z,99397.53
2023-08-02T03:06:42.558Z,99408.63
2023-08-02T03:07:45.721Z,99408.50
2023-08-02T03:08:47.944Z,99411.06
2023-08-02T03:09:50.650Z,99405.94
2023-08-02T03:10:52.949Z,99410.41
2023-08-02T03:11:55.163Z,99402.50
2023-08-02T03:12:57.567Z,99403.00
2023-08-02T03:14:00.011Z,99406.31
2023-08-02T03:15:02.451Z,99410.00
2023-08-02T03:16:04.884Z,99412.09
2023-08-02T03:17:07.205Z,99410.50
2023-08-02T03:18:10.278Z,99402.28
2023-08-02T03:19:13.623Z,99404.38
2023-08-02T03:20:15.886Z,99401.28
2023-08-02T03:21:18.430Z,99403.75
2023-08-02T03:22:20.824Z,99402.28
2023-08-02T03:23:23.086Z,99404.72
2023-08-02T03:24:25.553Z,99400.31
2023-08-02T03:25:27.783Z,99404.25
2023-08-02T03:26:30.095Z,99405.56
2023-08-02T03:27:32.540Z,99410.97
2023-08-02T03:28:34.758Z,99406.78
2023-08-02T03:29:37.765Z,99408.22
2023-08-02T03:30:40.070Z,99404.41
2023-08-02T03:31:43.680Z,99410.81
2023-08-02T03:32:46.209Z,99410.22
2023-08-02T03:33:48.607Z,99412.91
2023-08-02T03:34:51.127Z,99415.56
2023-08-02T03:35:53.368Z,99402.91
2023-08-02T03:36:55.668Z,99405.09
2023-08-02T03:37:58.094Z,99408.78
2023-08-02T03:39:00.284Z,99403.50
2023-08-02T03:40:02.872Z,99409.38
2023-08-02T03:41:05.200Z,99400.00
2023-08-02T03:42:08.075Z,99401.19
2023-08-02T03:43:10.827Z,99394.16
2023-08-02T03:44:13.251Z,99388.97
2023-08-02T03:45:15.478Z,99386.16
2023-08-02T03:46:17.707Z,99389.72
2023-08-02T03:47:19.975Z,99391.44
2023-08-02T03:48:22.417Z,99404.84
2023-08-02T03:49:24.905Z,99406.28
2023-08-02T03:50:28.251Z,99395.19
2023-08-02T03:51:30.526Z,99403.78
2023-08-02T03:52:32.739Z,99402.47
2023-08-02T03:53:35.212Z,99402.94
2023-08-02T03:54:37.696Z,99413.41
2023-08-02T03:55:39.923Z,99398.91
2023-08-02T03:56:42.571Z,99405.47
2023-08-02T03:57:44.982Z,99408.34
2023-08-02T03:58:47.457Z,99418.56
2023-08-02T03:59:49.938Z,99413.03
2023-08-02T04:00:52.697Z,99406.63
2023-08-02T04:01:54.957Z,99411.78
2023-08-02T04:02:57.325Z,99410.66
2023-08-02T04:03:59.851Z,99417.09
2023-08-02T04:05:02.618Z,99411.19
2023-08-02T04:06:05.302Z,99401.09
2023-08-02T04:07:07.577Z,99414.19
2023-08-02T04:08:09.987Z,99403.94
2023-08-02T04:09:12.219Z,99403.66
2023-08-02T04:10:14.628Z,99403.44
2023-08-02T04:11:16.898Z,99412.19
2023-08-02T04:12:20.671Z,99400.66
2023-08-02T04:13:23.084Z,99411.19
2023-08-02T04:14:25.290Z,99409.22
2023-08-02T04:15:27.706Z,99406.50
2023-08-02T04:16:30.032Z,99413.03
2023-08-02T04:17:32.505Z,99405.13
2023-08-02T04:18:34.774Z,99403.84
2023-08-02T04:19:37.085Z,99406.63
2023-08-02T04:20:40.346Z,99407.75
2023-08-02T04:21:42.546Z,99414.13
2023-08-02T04:22:44.992Z,99407.03
2023-08-02T04:23:50.338Z,99409.59
2023-08-02T04:24:52.992Z,99410.59
2023-08-02T04:25:56.842Z,99416.84
2023-08-02T04:27:00.453Z,99413.88
2023-08-02T04:28:02.845Z,99414.47
2023-08-02T04:29:05.086Z,99423.72
2023-08-02T04:30:08.199Z,99424.19
2023-08-02T04:31:10.553Z,99421.47
2023-08-02T04:32:12.988Z,99426.22
2023-08-02T04:33:15.270Z,99429.47
2023-08-02T04:34:17.510Z,99429.31
2023-08-02T04:35:20.099Z,99433.88
2023-08-02T04:36:22.658Z,99430.63
2023-08-02T04:37:24.887Z,99429.06
2023-08-02T04:38:27.972Z,99428.19
2023-08-02T04:39:30.229Z,99433.16
2023-08-02T04:40:32.816Z,99432.72
2023-08-02T04:41:36.198Z,99425.50
2023-08-02T04:42:38.628Z,99435.06
2023-08-02T04:43:40.998Z,99437.75
2023-08-02T04:44:43.257Z,99434.66
2023-08-02T04:45:45.721Z,99433.19
2023-08-02T04:46:48.174Z,99435.91
2023-08-02T04:47:50.499Z,99440.66
2023-08-02T04:48:52.771Z,99441.28
2023-08-02T04:49:58.480Z,99439.66
2023-08-02T04:51:06.962Z,99435.66
2023-08-02T04:52:09.428Z,99438.25
2023-08-02T04:53:11.742Z,99438.78
2023-08-02T04:54:13.958Z,99437.66
2023-08-02T04:55:16.503Z,99431.81
2023-08-02T04:56:18.904Z,99428.38
2023-08-02T04:57:21.440Z,99430.00
2023-08-02T04:58:25.058Z,99428.84
2023-08-02T04:59:27.263Z,99430.47
2023-08-02T05:00:29.668Z,99437.56
2023-08-02T05:01:32.397Z,99438.25
2023-08-02T05:02:38.032Z,99431.72
2023-08-02T05:03:40.290Z,99436.25
2023-08-02T05:04:42.512Z,99429.44
2023-08-02T05:05:44.739Z,99433.16
2023-08-02T05:06:47.118Z,99428.31
2023-08-02T05:07:49.555Z,99427.94
2023-08-02T05:08:51.778Z,99434.91
2023-08-02T05:09:54.025Z,99431.22
2023-08-02T05:10:56.237Z,99424.25
2023-08-02T05:11:58.638Z,99423.97
2023-08-02T05:13:01.128Z,99419.28
2023-08-02T05:14:03.353Z,99427.97
2023-08-02T05:15:06.544Z,99432.25
2023-08-02T05:16:15.552Z,99435.97
2023-08-02T05:17:17.971Z,99446.09
2023-08-02T05:18:20.452Z,99439.22
2023-08-02T05:19:22.828Z,99433.97
2023-08-02T05:20:25.179Z,99437.19
2023-08-02T05:21:27.452Z,99433.75
2023-08-02T05:22:32.432Z,99425.31
2023-08-02T05:23:34.701Z,99434.84
2023-08-02T05:24:37.160Z,99430.56
2023-08-02T05:25:39.623Z,99430.56
2023-08-02T05:26:41.913Z,99423.56
2023-08-02T05:27:44.515Z,99428.44
2023-08-02T05:28:46.746Z,99424.22
2023-08-02T05:29:49.165Z,99425.63
2023-08-02T05:30:51.377Z,99424.75
2023-08-02T05:31:53.639Z,99425.94
2023-08-02T05:32:56.943Z,99429.34
2023-08-02T05:33:59.301Z,99423.66
2023-08-02T05:35:01.774Z,99431.50
2023-08-02T05:36:04.211Z,99430.19
2023-08-02T05:37:06.714Z,99426.03
2023-08-02T05:38:09.204Z,99428.31
2023-08-02T05:39:11.441Z,99428.34
2023-08-02T05:40:16.413Z,99426.38
2023-08-02T05:41:18.741Z,99424.63
2023-08-02T05:42:21.325Z,99412.94
2023-08-02T05:43:23.676Z,99414.25
2023-08-02T05:44:25.907Z,99406.84
2023-08-02T05:45:28.438Z,99410.81
2023-08-02T05:46:31.247Z,99405.84
2023-08-02T05:47:35.160Z,99401.00
2023-08-02T05:48:37.642Z,99405.28
2023-08-02T05:49:39.894Z,99407.28
2023-08-02T05:50:42.517Z,99409.72
2023-08-02T05:51:45.173Z,99409.72
2023-08-02T05:52:48.950Z,99411.56
2023-08-02T05:53:51.354Z,99408.69
2023-08-02T05:54:53.619Z,99409.00
2023-08-02T05:55:57.108Z,99413.13
2023-08-02T05:56:59.390Z,99413.25
2023-08-02T05:58:01.798Z,99406.56
2023-08-02T05:59:04.207Z,99410.28
2023-08-02T06:00:08.290Z,99415.59
2023-08-02T06:01:10.573Z,99415.50
2023-08-02T06:02:12.788Z,99425.03
2023-08-02T06:03:15.676Z,99415.88
2023-08-02T06:04:18.316Z,99416.72
2023-08-02T06:05:20.556Z,99412.13
2023-08-02T06:06:23.065Z,99407.75
2023-08-02T06:07:25.480Z,99408.34
2023-08-02T06:08:28.080Z,99409.06
2023-08-02T06:09:30.914Z,99413.72
2023-08-02T06:10:33.165Z,99397.00
2023-08-02T06:11:35.616Z,99407.38
2023-08-02T06:12:37.816Z,99402.06
2023-08-02T06:13:40.976Z,99400.09
2023-08-02T06:14:43.198Z,99401.66
2023-08-02T06:15:45.468Z,99407.16
2023-08-02T06:16:48.040Z,99404.81
2023-08-02T06:17:50.281Z,99405.41
2023-08-02T06:18:52.899Z,99402.41
2023-08-02T06:19:55.226Z,99397.03
2023-08-02T06:20:57.467Z,99401.09
2023-08-02T06:21:59.975Z,99398.53
2023-08-02T06:23:02.210Z,99401.53
2023-08-02T06:24:05.022Z,99394.91
2023-08-02T06:25:08.213Z,99399.06
2023-08-02T06:26:10.804Z,99401.63
2023-08-02T06:27:13.235Z,99392.03
2023-08-02T06:28:15.468Z,99397.00
2023-08-02T06:29:18.101Z,99391.50
2023-08-02T06:30:20.520Z,99387.38
2023-08-02T06:31:23.273Z,99386.47
2023-08-02T06:32:25.701Z,99384.19
2023-08-02T06:33:27.913Z,99382.16
2023-08-02T06:34:30.501Z,99385.53
2023-08-02T06:35:32.748Z,99390.03
2023-08-02T06:36:35.627Z,99392.84
2023-08-02T06:37:38.025Z,99391.84
2023-08-02T06:38:40.618Z,99396.53
2023-08-02T06:39:43.305Z,99392.56
2023-08-02T06:40:45.596Z,99391.78
2023-08-02T06:41:48.086Z,99389.78
2023-08-02T06:42:50.620Z,99390.16
2023-08-02T06:43:52.908Z,99398.56
2023-08-02T06:44:55.757Z,99395.16
2023-08-02T06:45:58.339Z,99399.53
2023-08-02T06:47:00.829Z,99407.41
2023-08-02T06:48:06.624Z,99405.47
2023-08-02T06:49:09.006Z,99397.06
2023-08-02T06:50:12.514Z,99394.91
2023-08-02T06:51:14.782Z,99389.47
2023-08-02T06:52:18.132Z,99391.25
2023-08-02T06:53:20.730Z,99394.72
2023-08-02T06:54:23.122Z,99386.88
2023-08-02T06:55:27.062Z,99381.59
2023-08-02T06:56:29.388Z,99377.97
2023-08-02T06:57:32.559Z,99384.22
2023-08-02T06:58:35.129Z,99384.19
2023-08-02T06:59:37.592Z,99386.66
2023-08-02T07:00:41.708Z,99385.53
2023-08-02T07:01:44.120Z,99382.38
2023-08-02T07:02:46.933Z,99365.50
2023-08-02T07:03:50.669Z,99371.38
2023-08-02T07:04:53.168Z,99371.59
2023-08-02T07:05:55.440Z,99372.66
2023-08-02T07:06:57.626Z,99374.78
2023-08-02T07:08:01.329Z,99378.91
2023-08-02T07:09:03.692Z,99369.63
2023-08-02T07:10:06.426Z,99370.88
2023-08-02T07:11:12.084Z,99374.84
2023-08-02T07:12:16.578Z,99365.66
2023-08-02T07:13:19.014Z,99368.78
2023-08-02T07:14:21.405Z,99373.94
2023-08-02T07:15:24.108Z,99364.53
2023-08-02T07:16:26.446Z,99366.25
2023-08-02T07:17:28.725Z,99368.47
2023-08-02T07:18:31.513Z,99369.63
2023-08-02T07:19:34.784Z,99364.69
2023-08-02T07:20:37.386Z,99371.56
2023-08-02T07:21:41.210Z,99364.72
2023-08-02T07:22:45.529Z,99367.59
2023-08-02T07:23:47.967Z,99367.09
2023-08-02T07:24:50.227Z,99363.16
2023-08-02T07:25:55.050Z,99360.03
2023-08-02T07:26:57.598Z,99354.72
2023-08-02T07:27:59.819Z,99350.66
2023-08-02T07:29:02.250Z,99354.56
2023-08-02T07:30:05.506Z,99346.31
2023-08-02T07:31:14.340Z,99352.28
2023-08-02T07:32:16.811Z,99348.00
2023-08-02T07:33:19.049Z,99352.09
2023-08-02T07:34:21.315Z,99363.38
2023-08-02T07:35:23.530Z,99361.84
2023-08-02T07:36:26.763Z,99362.63
2023-08-02T07:37:29.100Z,99361.38
2023-08-02T07:38:31.752Z,99358.72
2023-08-02T07:39:34.616Z,99355.94
2023-08-02T07:40:36.822Z,99359.25
2023-08-02T07:41:39.632Z,99366.41
2023-08-02T07:42:42.019Z,99360.44
2023-08-02T07:43:44.505Z,99358.47
2023-08-02T07:45:06.764Z,99349.94
2023-08-02T07:46:22.800Z,99342.53
2023-08-02T07:47:25.187Z,99336.22
2023-08-02T07:48:27.509Z,99337.06
2023-08-02T07:49:30.128Z,99335.31
2023-08-02T07:50:32.839Z,99338.75
2023-08-02T07:51:35.499Z,99337.53
2023-08-02T07:52:37.769Z,99335.63
2023-08-02T07:53:40.028Z,99335.06
2023-08-02T07:54:54.762Z,99338.00
2023-08-02T07:56:05.545Z,99329.38
2023-08-02T07:57:08.221Z,99330.41
2023-08-02T07:58:10.528Z,99331.97
2023-08-02T07:59:13.963Z,99328.78
2023-08-02T08:00:16.553Z,99326.69
2023-08-02T08:01:18.851Z,99326.81
2023-08-02T08:02:21.644Z,99329.38
2023-08-02T08:03:24.044Z,99324.34
2023-08-02T08:04:26.406Z,99320.41
2023-08-02T08:05:33.268Z,99318.28
2023-08-02T08:06:35.980Z,99319.94
2023-08-02T08:07:38.287Z,99310.88
2023-08-02T08:08:41.846Z,99312.84
2023-08-02T08:09:44.110Z,99313.56
2023-08-02T08:10:51.607Z,99323.28
2023-08-02T08:11:54.027Z,99316.63
2023-08-02T08:12:56.375Z,99311.53
2023-08-02T08:13:58.624Z,99313.78
2023-08-02T08:15:00.822Z,99311.47
2023-08-02T08:16:03.901Z,99310.69
2023-08-02T08:17:06.735Z,99314.16
2023-08-02T08:18:09.116Z,99314.28
2023-08-02T08:19:11.378Z,99312.56
2023-08-02T08:20:13.769Z,99319.53
2023-08-02T08:21:16.256Z,99325.25
2023-08-02T08:22:19.765Z,99326.66
2023-08-02T08:23:22.025Z,99326.66
2023-08-02T08:24:24.378Z,99324.50
2023-08-02T08:25:26.920Z,99330.53
2023-08-02T08:26:29.149Z,99332.72
2023-08-02T08:27:31.637Z,99333.47
2023-08-02T08:28:33.899Z,99329.66
2023-08-02T08:29:36.120Z,99340.28
2023-08-02T08:30:38.356Z,99347.69
2023-08-02T08:31:43.713Z,99339.13
2023-08-02T08:32:46.771Z,99343.75
2023-08-02T08:33:49.112Z,99347.00
2023-08-02T08:34:51.309Z,99344.34
2023-08-02T08:35:53.746Z,99341.00
2023-08-02T08:36:56.181Z,99338.31
2023-08-02T08:37:58.381Z,99341.44
2023-08-02T08:39:00.911Z,99335.66
2023-08-02T08:41:13.794Z,99336.78
2023-08-02T08:42:16.282Z,99328.16
2023-08-02T08:43:19.600Z,99326.19
2023-08-02T08:44:21.890Z,99329.78
2023-08-02T08:45:26.754Z,99328.94
2023-08-02T08:46:32.933Z,99319.63
2023-08-02T08:47:36.758Z,99324.53
2023-08-02T08:48:40.009Z,99327.44
2023-08-02T08:49:42.422Z,99330.31
2023-08-02T08:50:47.657Z,99317.53
2023-08-02T08:51:53.849Z,99317.09
2023-08-02T08:52:59.487Z,99320.69
2023-08-02T08:54:15.792Z,99313.16
2023-08-02T08:55:20.088Z,99312.28
2023-08-02T08:56:27.065Z,99311.22
2023-08-02T08:57:32.567Z,99297.91
2023-08-02T08:58:37.934Z,99304.69
2023-08-02T08:59:40.483Z,99304.81
2023-08-02T09:00:44.310Z,99291.84
2023-08-02T09:01:47.330Z,99302.81
2023-08-02T09:02:51.127Z,99291.78
2023-08-02T09:03:53.420Z,99296.88
2023-08-02T09:04:57.065Z,99287.34
2023-08-02T09:06:04.493Z,99291.72
2023-08-02T09:07:06.824Z,99288.16
2023-08-02T09:08:10.025Z,99288.38
2023-08-02T09:09:15.684Z,99282.69
2023-08-02T09:10:19.457Z,99281.31
2023-08-02T09:11:21.881Z,99279.41
2023-08-02T09:12:28.668Z,99284.94
2023-08-02T09:13:30.895Z,99289.63
2023-08-02T09:14:33.138Z,99284.50
2023-08-02T09:15:35.573Z,99295.66
2023-08-02T09:16:40.852Z,99292.25
2023-08-02T09:17:47.859Z,99294.75
2023-08-02T09:18:50.559Z,99287.06
2023-08-02T09:20:07.847Z,99282.13
2023-08-02T09:21:14.387Z,99282.16
2023-08-02T09:22:17.678Z,99280.38
2023-08-02T09:23:20.078Z,99281.06
2023-08-02T09:24:34.150Z,99272.94
2023-08-02T09:25:36.420Z,99283.09
2023-08-02T09:26:38.839Z,99284.31
2023-08-02T09:27:41.101Z,99279.44
2023-08-02T09:29:04.677Z,99278.16
2023-08-02T09:30:07.497Z,99272.13
2023-08-02T09:31:17.671Z,99279.78
2023-08-02T09:32:22.267Z,99279.06
2023-08-02T09:33:24.972Z,99273.97
2023-08-02T09:34:43.071Z,99281.03
2023-08-02T09:35:52.268Z,99275.16
2023-08-02T09:36:54.707Z,99272.44
2023-08-02T09:37:57.089Z,99265.84
2023-08-02T09:39:17.094Z,99271.25
2023-08-02T09:40:34.149Z,99272.63
2023-08-02T09:42:41.851Z,99264.34
2023-08-02T09:43:45.497Z,99264.50
2023-08-02T09:44:58.761Z,99250.06
2023-08-02T09:46:01.066Z,99248.09
2023-08-02T09:47:11.064Z,99253.22
2023-08-02T09:48:13.466Z,99249.22
2023-08-02T09:49:20.421Z,99258.56
2023-08-02T09:50:23.206Z,99243.31
2023-08-02T09:51:42.592Z,99244.66
2023-08-02T09:52:45.660Z,99243.97
2023-08-02T09:53:57.754Z,99240.09
2023-08-02T09:55:00.556Z,99240.94
2023-08-02T09:56:03.482Z,99240.84
2023-08-02T09:57:06.599Z,99238.09
2023-08-02T09:58:09.273Z,99237.63
2023-08-02T09:59:11.711Z,99249.03
2023-08-02T10:00:14.969Z,99240.50
2023-08-02T10:01:18.898Z,99234.44
2023-08-02T10:02:25.479Z,99233.50
2023-08-02T10:03:29.617Z,99231.59
2023-08-02T10:04:32.618Z,99235.19
2023-08-02T10:05:42.512Z,99233.38
2023-08-02T10:06:48.942Z,99227.22
2023-08-02T10:07:55.562Z,99234.25
2023-08-02T10:09:06.640Z,99231.19
2023-08-02T10:10:24.619Z,99220.63
2023-08-02T10:11:28.645Z,99233.69
2023-08-02T10:12:31.716Z,99234.16
2023-08-02T10:13:38.873Z,99228.22
2023-08-02T10:14:41.960Z,99233.97
2023-08-02T10:15:44.710Z,99229.22
2023-08-02T10:16:47.423Z,99222.69
2023-08-02T10:17:50.371Z,99224.34
2023-08-02T10:18:53.830Z,99228.88
2023-08-02T10:19:57.050Z,99222.25
2023-08-02T10:21:01.957Z,99221.81
2023-08-02T10:22:05.571Z,99215.38
2023-08-02T10:23:09.852Z,99216.69
2023-08-02T10:24:14.399Z,99209.25
2023-08-02T10:25:18.735Z,99214.50
2023-08-02T10:26:22.127Z,99212.22
2023-08-02T10:27:26.165Z,99213.91
2023-08-02T10:28:29.446Z,99211.34
2023-08-02T10:29:34.786Z,99209.03
2023-08-02T10:30:37.773Z,99216.91
2023-08-02T10:31:41.481Z,99222.59
2023-08-02T10:32:43.850Z,99207.00
2023-08-02T10:33:46.202Z,99204.09
2023-08-02T10:34:53.282Z,99204.09
2023-08-02T10:36:07.978Z,99198.41
2023-08-02T10:37:10.284Z,99210.03
2023-08-02T10:38:16.364Z,99197.09
2023-08-02T10:39:18.620Z,99197.38
2023-08-02T10:40:22.787Z,99195.38
2023-08-02T10:41:28.255Z,99193.91
2023-08-02T10:42:31.166Z,99197.88
2023-08-02T10:43:33.777Z,99192.19
2023-08-02T10:44:36.005Z,99185.50
2023-08-02T10:45:38.301Z,99187.06
2023-08-02T10:46:41.374Z,99190.38
2023-08-02T10:47:44.277Z,99179.53
2023-08-02T10:48:46.875Z,99190.31
2023-08-02T10:49:49.178Z,99173.56
2023-08-02T10:50:51.492Z,99178.94
2023-08-02T10:51:57.525Z,99184.16
2023-08-02T10:53:08.825Z,99173.38
2023-08-02T10:54:24.370Z,99172.06
2023-08-02T10:55:26.855Z,99164.88
2023-08-02T10:56:29.303Z,99182.91
2023-08-02T10:57:31.714Z,99166.09
2023-08-02T10:58:51.876Z,99162.69
2023-08-02T10:59:54.504Z,99161.56
2023-08-02T11:01:12.084Z,99155.63
2023-08-02T11:02:15.081Z,99155.50
2023-08-02T11:03:29.736Z,99154.84
2023-08-02T11:04:32.164Z,99159.56
2023-08-02T11:05:41.417Z,99154.88
2023-08-02T11:06:44.113Z,99157.69
2023-08-02T11:08:01.998Z,99149.66
2023-08-02T11:09:05.072Z,99146.41
2023-08-02T11:10:07.943Z,99135.31
2023-08-02T11:11:10.163Z,99146.69
2023-08-02T11:12:33.487Z,99149.56
2023-08-02T11:13:41.173Z,99145.03
2023-08-02T11:14:46.201Z,99159.22
2023-08-02T11:16:15.539Z,99148.31
2023-08-02T11:18:35.511Z,99143.06
2023-08-02T11:21:17.098Z,99142.97
2023-08-02T11:22:20.290Z,99144.50
2023-08-02T11:23:29.455Z,99138.56
2023-08-02T11:24:50.133Z,99147.28
2023-08-02T11:26:15.809Z,99140.34
2023-08-02T11:27:22.086Z,99135.22
2023-08-02T11:28:25.740Z,99138.44
2023-08-02T11:29:28.157Z,99137.84
2023-08-02T11:30:30.886Z,99131.41
2023-08-02T11:31:33.538Z,99130.44
2023-08-02T11:32:44.336Z,99134.88
2023-08-02T11:33:46.924Z,99133.19
2023-08-02T11:34:51.971Z,99138.47
2023-08-02T11:35:58.852Z,99126.22
2023-08-02T11:37:09.313Z,99123.41
2023-08-02T11:38:14.664Z,99118.03
2023-08-02T11:39:17.985Z,99116.72
2023-08-02T11:40:26.686Z,99116.06
2023-08-02T11:41:29.291Z,99105.66
2023-08-02T11:42:34.200Z,99105.19
2023-08-02T11:43:37.869Z,99105.38
2023-08-02T11:44:49.730Z,99101.63
2023-08-02T11:46:00.795Z,99095.41
2023-08-02T11:47:03.355Z,99095.31
2023-08-02T11:48:10.834Z,99098.97
2023-08-02T11:49:13.952Z,99097.66
2023-08-02T11:50:24.713Z,99096.91
2023-08-02T11:51:26.829Z,99101.06
2023-08-02T11:52:31.315Z,99106.25
2023-08-02T11:53:33.961Z,99093.97
2023-08-02T11:54:36.290Z,99102.38
2023-08-02T11:55:40.065Z,99100.28
2023-08-02T11:56:43.517Z,99109.56
2023-08-02T11:57:47.545Z,99097.34
2023-08-02T11:58:50.924Z,99091.59
2023-08-02T11:59:57.764Z,99092.34
2023-08-02T12:01:00.589Z,99099.34
2023-08-02T12:02:02.844Z,99102.25
2023-08-02T12:03:10.207Z,99095.69
2023-08-02T12:04:12.652Z,99097.00
2023-08-02T12:05:22.444Z,99091.53
2023-08-02T12:06:29.646Z,99090.94
2023-08-02T12:07:33.243Z,99081.34
2023-08-02T12:08:35.474Z,99078.91
2023-08-02T12:09:43.611Z,99072.59
2023-08-02T12:10:48.633Z,99075.69
2023-08-02T12:11:54.088Z,99074.19
2023-08-02T12:12:56.504Z,99084.59
2023-08-02T12:14:02.700Z,99083.25
2023-08-02T12:15:12.478Z,99077.59
2023-08-02T12:16:17.332Z,99072.88
2023-08-02T12:17:21.539Z,99074.38
2023-08-02T12:18:23.919Z,99073.94
2023-08-02T12:19:40.045Z,99058.63
2023-08-02T12:20:42.768Z,99056.69
2023-08-02T12:21:46.881Z,99059.16
2023-08-02T12:22:50.645Z,99047.88
2023-08-02T12:23:53.946Z,99050.94
2023-08-02T12:25:07.207Z,99053.34
2023-08-02T12:26:09.943Z,99051.38
2023-08-02T12:27:30.809Z,99042.25
2023-08-02T12:28:48.874Z,99042.91
2023-08-02T12:30:08.507Z,99047.56
2023-08-02T12:31:11.977Z,99043.06
2023-08-02T12:32:28.454Z,99040.63
2023-08-02T12:33:32.796Z,99035.56
2023-08-02T12:34:35.151Z,99031.84
2023-08-02T12:35:42.896Z,99035.16
2023-08-02T12:36:48.421Z,99029.78